aviador You're here:

OMDB Decoded Metar

DUBAI in UNITED ARAB EMIRATES
Report Time2017-09-23 00:00:00
UTC Time2017-09-23 00:21:37
Flight Rules vfr VFR
Wind070° at 05 kt
W.Decomp.*RWY 12: 3.1 kt HW 3.9 kt LCW
W.Rank070° ranks 18
Current wind is below 070° avg. (5.7)
Visibility9999 m
Phenomena:N/A
Clouds:N/A
Expected CloudBase > 12,800 ft AGL from Temp-Dew spread
CeilingNone
Temp34°C (ISA +19)
Dew Point02°C (13% RH)
Heat Index31.5°C
AAT30.5°C
QNH1005 hPa
Density Alt2,549 ft
Elevation16 ft
Report Wrong Elevation
Raw Report
METAR OMDB 230000Z 07005KT 040V100 CAVOK 34/02 Q1005 NOSIG=

Extra information for OMDB:More info

Metar Taf Metar & Taf Last 4 Metars F.Rules Stats Wind Profile Meteogram Temp Stats Airport Information Weather charts Add Link Nearby VenuesMetar ALERT Operation Metar Decoded Social comments